createdAt,value
2018-06-22T00:01:47.477Z,3.37
2018-06-22T00:04:15.548Z,3.23
2018-06-22T00:06:43.860Z,2.13
2018-06-22T00:09:11.948Z,2.80
2018-06-22T00:11:40.123Z,3.40
2018-06-22T00:14:08.654Z,2.17
2018-06-22T00:16:37.429Z,2.90
2018-06-22T00:19:05.526Z,2.57
2018-06-22T00:21:33.469Z,2.90
2018-06-22T00:24:01.554Z,3.20
2018-06-22T00:26:29.632Z,2.83
2018-06-22T00:28:57.695Z,2.20
2018-06-22T00:31:25.743Z,2.50
2018-06-22T00:33:53.908Z,2.40
2018-06-22T00:36:21.974Z,2.57
2018-06-22T00:38:50.101Z,2.40
2018-06-22T00:41:18.153Z,1.90
2018-06-22T00:43:46.225Z,3.33
2018-06-22T00:46:14.586Z,3.50
2018-06-22T00:48:42.714Z,2.13
2018-06-22T00:51:10.835Z,3.43
2018-06-22T00:53:50.411Z,2.23
2018-06-22T00:56:18.530Z,2.30
2018-06-22T00:58:46.632Z,1.90
2018-06-22T01:01:14.693Z,2.87
2018-06-22T01:03:42.735Z,2.03
2018-06-22T01:06:10.627Z,2.63
2018-06-22T01:08:38.815Z,2.03
2018-06-22T01:11:06.959Z,2.27
2018-06-22T01:13:35.048Z,3.73
2018-06-22T01:16:03.101Z,2.60
2018-06-22T01:18:31.219Z,2.03
2018-06-22T01:20:59.155Z,2.43
2018-06-22T01:23:27.219Z,1.77
2018-06-22T01:25:55.340Z,2.27
2018-06-22T01:28:23.424Z,2.23
2018-06-22T01:30:51.477Z,2.33
2018-06-22T01:33:19.560Z,3.43
2018-06-22T01:35:47.665Z,1.83
2018-06-22T01:38:15.720Z,2.40
2018-06-22T01:40:44.018Z,2.73
2018-06-22T01:43:12.140Z,3.17
2018-06-22T01:45:40.222Z,2.10
2018-06-22T01:48:08.295Z,1.30
2018-06-22T01:50:36.355Z,1.70
2018-06-22T01:53:04.455Z,1.47
2018-06-22T01:55:32.521Z,2.77
2018-06-22T01:58:00.605Z,2.10
2018-06-22T02:00:28.649Z,1.60
2018-06-22T02:02:56.808Z,2.47
2018-06-22T02:05:24.912Z,2.83
2018-06-22T02:07:53.001Z,1.43
2018-06-22T02:10:21.064Z,1.83
2018-06-22T02:12:49.140Z,1.87
2018-06-22T02:15:17.236Z,2.13
2018-06-22T02:17:45.312Z,1.53
2018-06-22T02:20:13.379Z,1.50
2018-06-22T02:22:41.490Z,1.70
2018-06-22T02:25:09.572Z,1.30
2018-06-22T02:27:37.681Z,2.27
2018-06-22T02:30:05.744Z,2.03
2018-06-22T02:32:33.809Z,0.93
2018-06-22T02:35:01.865Z,1.27
2018-06-22T02:37:30.055Z,1.97
2018-06-22T02:39:58.244Z,1.30
2018-06-22T02:42:26.330Z,1.73
2018-06-22T02:44:54.388Z,1.20
2018-06-22T02:47:22.468Z,1.00
2018-06-22T02:49:50.528Z,1.00
2018-06-22T02:52:18.579Z,1.40
2018-06-22T02:54:46.757Z,1.50
2018-06-22T02:57:14.871Z,1.40
2018-06-22T02:59:42.971Z,1.47
2018-06-22T03:02:11.042Z,2.80
2018-06-22T03:04:39.112Z,1.30
2018-06-22T03:07:07.181Z,1.47
2018-06-22T03:09:35.237Z,1.60
2018-06-22T03:12:03.296Z,1.50
2018-06-22T03:14:31.460Z,1.77
2018-06-22T03:16:59.593Z,1.23
2018-06-22T03:19:27.749Z,1.20
2018-06-22T03:21:55.817Z,1.10
2018-06-22T03:24:24.016Z,2.27
2018-06-22T03:26:52.069Z,1.10
2018-06-22T03:29:20.138Z,1.67
2018-06-22T03:31:48.252Z,1.90
2018-06-22T03:34:16.319Z,1.50
2018-06-22T03:36:44.461Z,2.03
2018-06-22T03:39:12.696Z,1.20
2018-06-22T03:41:40.777Z,1.50
2018-06-22T03:44:08.891Z,2.63
2018-06-22T03:46:37.432Z,1.93
2018-06-22T03:49:05.600Z,1.77
2018-06-22T03:51:33.541Z,1.50
2018-06-22T03:54:01.593Z,1.60
2018-06-22T03:56:29.642Z,1.60
2018-06-22T03:58:57.748Z,3.60
2018-06-22T04:01:25.655Z,1.77
2018-06-22T04:03:53.772Z,1.30
2018-06-22T04:06:21.820Z,1.83
2018-06-22T04:08:49.867Z,1.83
2018-06-22T04:11:17.904Z,1.80
2018-06-22T04:13:46.209Z,1.77
2018-06-22T04:16:14.379Z,1.90
2018-06-22T04:18:42.461Z,1.33
2018-06-22T04:21:10.544Z,2.40
2018-06-22T04:23:38.667Z,1.10
2018-06-22T04:26:06.742Z,1.63
2018-06-22T04:28:34.795Z,1.63
2018-06-22T04:31:02.855Z,1.17
2018-06-22T04:33:30.908Z,1.10
2018-06-22T04:35:59.056Z,1.23
2018-06-22T04:38:27.151Z,3.63
2018-06-22T04:40:55.301Z,1.10
2018-06-22T04:43:23.427Z,1.87
2018-06-22T04:45:51.612Z,1.70
2018-06-22T04:48:19.670Z,1.50
2018-06-22T04:50:47.734Z,1.70
2018-06-22T04:53:15.780Z,1.67
2018-06-22T04:55:43.876Z,1.43
2018-06-22T04:58:12.004Z,2.17
2018-06-22T05:00:40.103Z,1.57
2018-06-22T05:03:08.370Z,1.40
2018-06-22T05:05:36.453Z,1.20
2018-06-22T05:08:04.750Z,2.27
2018-06-22T05:10:32.865Z,1.10
2018-06-22T05:13:01.127Z,1.23
2018-06-22T05:15:29.239Z,0.93
2018-06-22T05:17:57.331Z,1.30
2018-06-22T05:20:25.377Z,1.10
2018-06-22T05:22:53.457Z,1.83
2018-06-22T05:25:21.576Z,1.53
2018-06-22T05:27:49.640Z,1.43
2018-06-22T05:30:17.781Z,0.93
2018-06-22T05:32:45.840Z,2.63
2018-06-22T05:35:13.945Z,1.50
2018-06-22T05:37:42.028Z,2.03
2018-06-22T05:40:10.203Z,1.53
2018-06-22T05:42:38.281Z,1.10
2018-06-22T05:45:06.408Z,1.40
2018-06-22T05:47:34.429Z,1.10
2018-06-22T05:50:02.533Z,1.00
2018-06-22T05:52:30.630Z,1.63
2018-06-22T05:54:58.693Z,1.50
2018-06-22T05:57:26.932Z,0.97
2018-06-22T05:59:55.476Z,1.60
2018-06-22T06:02:23.532Z,1.90
2018-06-22T06:04:51.903Z,0.90
2018-06-22T06:07:20.232Z,1.00
2018-06-22T06:09:48.340Z,1.87
2018-06-22T06:12:17.468Z,1.20
2018-06-22T06:14:45.718Z,1.00
2018-06-22T06:17:13.870Z,1.70
2018-06-22T06:19:41.976Z,1.00
2018-06-22T06:22:10.094Z,1.60
2018-06-22T06:24:38.487Z,1.53
2018-06-22T06:27:06.647Z,1.40
2018-06-22T06:29:34.752Z,2.27
2018-06-22T06:32:02.825Z,1.17
2018-06-22T06:34:30.898Z,1.27
2018-06-22T06:36:58.966Z,1.10
2018-06-22T06:39:27.204Z,1.27
2018-06-22T06:41:55.293Z,0.90
2018-06-22T06:44:23.583Z,1.97
2018-06-22T06:46:51.641Z,1.23
2018-06-22T06:49:19.952Z,1.33
2018-06-22T06:51:48.024Z,1.67
2018-06-22T06:54:16.085Z,1.47
2018-06-22T06:56:44.193Z,1.03
2018-06-22T06:59:12.496Z,1.17
2018-06-22T07:01:40.609Z,1.27
2018-06-22T07:04:08.708Z,1.87
2018-06-22T07:06:36.760Z,1.63
2018-06-22T07:09:06.769Z,0.97
2018-06-22T07:11:34.830Z,1.20
2018-06-22T07:14:02.899Z,1.30
2018-06-22T07:16:31.022Z,0.80
2018-06-22T07:18:59.092Z,1.53
2018-06-22T07:21:27.241Z,3.07
2018-06-22T07:23:55.388Z,1.30
2018-06-22T07:26:23.432Z,1.73
2018-06-22T07:28:51.600Z,1.50
2018-06-22T07:31:19.641Z,0.93
2018-06-22T07:33:47.836Z,1.87
2018-06-22T07:36:16.193Z,1.73
2018-06-22T07:38:44.368Z,1.60
2018-06-22T07:41:12.684Z,1.47
2018-06-22T07:43:40.796Z,1.50
2018-06-22T07:46:08.680Z,2.83
2018-06-22T07:48:36.763Z,1.50
2018-06-22T07:51:04.866Z,1.30
2018-06-22T07:53:32.695Z,0.90
2018-06-22T07:56:00.764Z,2.10
2018-06-22T07:58:28.844Z,1.10
2018-06-22T08:00:56.912Z,1.00
2018-06-22T08:03:25.023Z,2.23
2018-06-22T08:05:53.220Z,1.00
2018-06-22T08:08:21.357Z,1.60
2018-06-22T08:10:49.481Z,1.00
2018-06-22T08:13:17.547Z,2.03
2018-06-22T08:15:45.657Z,1.30
2018-06-22T08:18:13.716Z,1.87
2018-06-22T08:20:41.886Z,1.63
2018-06-22T08:23:10.124Z,1.47
2018-06-22T08:25:38.223Z,1.27
2018-06-22T08:28:06.056Z,2.90
2018-06-22T08:30:34.115Z,1.30
2018-06-22T08:33:02.229Z,1.47
2018-06-22T08:35:30.302Z,1.93
2018-06-22T08:37:58.408Z,1.60
2018-06-22T08:40:27.213Z,1.80
2018-06-22T08:42:55.272Z,1.43
2018-06-22T08:45:23.348Z,2.07
2018-06-22T08:47:51.433Z,2.10
2018-06-22T08:50:19.497Z,1.10
2018-06-22T08:52:47.560Z,4.30
2018-06-22T08:55:15.635Z,1.77
2018-06-22T08:57:43.708Z,2.43
2018-06-22T09:00:11.808Z,2.20
2018-06-22T09:02:39.958Z,1.97
2018-06-22T09:05:08.254Z,3.10
2018-06-22T09:07:36.645Z,3.37
2018-06-22T09:10:04.725Z,3.97
2018-06-22T09:12:32.820Z,2.00
2018-06-22T09:15:00.934Z,5.70
2018-06-22T09:17:29.495Z,7.60
2018-06-22T09:19:57.945Z,4.30
2018-06-22T09:22:25.916Z,3.80
2018-06-22T09:24:53.997Z,4.57
2018-06-22T09:27:22.103Z,4.17
2018-06-22T09:29:50.044Z,3.43
2018-06-22T09:32:18.111Z,3.57
2018-06-22T09:34:46.162Z,6.03
2018-06-22T09:37:14.388Z,5.83
2018-06-22T09:39:42.477Z,7.07
2018-06-22T09:42:10.593Z,5.53
2018-06-22T09:44:39.877Z,5.00
2018-06-22T09:47:09.028Z,6.47
2018-06-22T09:49:37.131Z,8.23
2018-06-22T09:52:05.289Z,5.20
2018-06-22T09:54:33.364Z,5.93
2018-06-22T09:57:01.429Z,7.17
2018-06-22T09:59:29.483Z,7.80
2018-06-22T10:01:57.573Z,6.37
2018-06-22T10:04:25.692Z,4.77
2018-06-22T10:06:53.793Z,4.23
2018-06-22T10:09:21.856Z,6.97
2018-06-22T10:11:49.925Z,5.70
2018-06-22T10:14:18.010Z,5.53
2018-06-22T10:16:46.172Z,5.30
2018-06-22T10:19:14.249Z,6.73
2018-06-22T10:21:42.367Z,5.93
2018-06-22T10:24:10.501Z,6.10
2018-06-22T10:26:38.635Z,3.83
2018-06-22T10:29:06.750Z,3.40
2018-06-22T10:31:34.932Z,5.93
2018-06-22T10:34:03.003Z,4.73
2018-06-22T10:36:31.073Z,5.40
2018-06-22T10:38:59.128Z,6.33
2018-06-22T10:41:27.208Z,7.63
2018-06-22T10:43:55.304Z,5.27
2018-06-22T10:46:23.356Z,5.30
2018-06-22T10:48:51.448Z,6.43
2018-06-22T10:51:19.526Z,5.87
2018-06-22T10:53:47.604Z,6.13
2018-06-22T10:56:15.692Z,3.40
2018-06-22T10:58:43.808Z,5.07
2018-06-22T11:01:11.884Z,4.03
2018-06-22T11:03:40.059Z,4.47
2018-06-22T11:06:08.141Z,5.87
2018-06-22T11:08:36.237Z,4.73
2018-06-22T11:11:04.375Z,3.73
2018-06-22T11:13:32.645Z,2.93
2018-06-22T11:16:00.825Z,3.20
2018-06-22T11:18:29.185Z,4.03
2018-06-22T11:20:57.079Z,7.33
2018-06-22T11:23:25.213Z,4.77
2018-06-22T11:25:53.452Z,4.67
2018-06-22T11:28:21.857Z,3.40
2018-06-22T11:30:50.082Z,3.40
2018-06-22T11:33:18.242Z,2.73
2018-06-22T11:35:46.455Z,5.03
2018-06-22T11:38:14.675Z,5.77
2018-06-22T11:40:42.820Z,5.47
2018-06-22T11:43:11.013Z,5.33
2018-06-22T11:45:39.172Z,5.00
2018-06-22T11:48:07.577Z,5.33
2018-06-22T11:50:35.737Z,4.97
2018-06-22T11:53:03.844Z,7.40
2018-06-22T11:55:31.909Z,9.17
2018-06-22T11:58:00.201Z,10.93
2018-06-22T12:00:28.295Z,7.93
2018-06-22T12:02:56.381Z,7.67
2018-06-22T12:05:24.500Z,4.53
2018-06-22T12:07:52.563Z,10.43
2018-06-22T12:10:20.639Z,6.90
2018-06-22T12:12:48.981Z,8.47
2018-06-22T12:15:17.083Z,9.87
2018-06-22T12:17:45.233Z,9.70
2018-06-22T12:20:13.348Z,8.53
2018-06-22T12:22:41.484Z,12.13
2018-06-22T12:25:09.689Z,15.10
2018-06-22T12:27:37.906Z,9.03
2018-06-22T12:30:05.963Z,13.83
2018-06-22T12:32:33.875Z,23.07
2018-06-22T12:35:02.041Z,15.07
2018-06-22T12:37:29.970Z,16.57
2018-06-22T12:39:58.048Z,15.50
2018-06-22T12:42:26.127Z,15.57
2018-06-22T12:44:54.346Z,16.80
2018-06-22T12:47:22.465Z,10.50
2018-06-22T12:49:50.663Z,17.13
2018-06-22T12:52:18.725Z,15.87
2018-06-22T12:54:46.873Z,14.57
2018-06-22T12:57:14.986Z,14.30
2018-06-22T12:59:43.212Z,20.57
2018-06-22T13:02:11.352Z,15.13
2018-06-22T13:04:39.506Z,15.27
2018-06-22T13:07:07.720Z,12.93
2018-06-22T13:09:35.927Z,13.40
2018-06-22T13:12:03.943Z,12.80
2018-06-22T13:14:32.022Z,10.77
2018-06-22T13:17:00.287Z,20.00
2018-06-22T13:19:28.531Z,15.43
2018-06-22T13:21:57.440Z,14.93
2018-06-22T13:24:26.013Z,16.97
2018-06-22T13:26:54.182Z,17.33
2018-06-22T13:29:22.250Z,9.47
2018-06-22T13:31:50.419Z,15.93
2018-06-22T13:34:18.490Z,13.10
2018-06-22T13:36:48.898Z,10.57
2018-06-22T13:39:18.260Z,11.63
2018-06-22T13:41:46.740Z,13.20
2018-06-22T13:44:14.888Z,80.83
2018-06-22T13:46:43.685Z,28.10
2018-06-22T13:49:12.221Z,29.13
2018-06-22T13:51:40.400Z,19.40
2018-06-22T13:54:09.276Z,18.47
2018-06-22T13:56:37.941Z,18.23
2018-06-22T13:59:06.292Z,12.80
2018-06-22T14:01:34.780Z,25.20
2018-06-22T14:04:08.381Z,24.17
2018-06-22T14:06:41.937Z,23.83
2018-06-22T14:09:12.680Z,18.93
2018-06-22T14:11:41.478Z,22.83
2018-06-22T14:14:09.836Z,23.33
2018-06-22T14:16:37.988Z,19.70
2018-06-22T14:19:07.774Z,17.70
2018-06-22T14:21:36.132Z,9.93
2018-06-22T14:24:04.660Z,16.47
2018-06-22T14:26:32.820Z,13.80
2018-06-22T14:29:00.924Z,14.17
2018-06-22T14:31:29.200Z,13.53
2018-06-22T14:33:57.313Z,14.60
2018-06-22T14:36:25.455Z,12.53
2018-06-22T14:38:53.880Z,14.33
2018-06-22T14:41:22.107Z,8.67
2018-06-22T14:43:50.191Z,13.10
2018-06-22T14:46:18.288Z,16.70
2018-06-22T14:48:46.471Z,30.57
2018-06-22T14:51:14.729Z,36.37
2018-06-22T14:53:48.132Z,19.47
2018-06-22T14:56:21.649Z,19.47
2018-06-22T14:58:55.264Z,14.47
2018-06-22T15:01:28.743Z,24.03
2018-06-22T15:04:02.413Z,30.20
2018-06-22T15:06:36.148Z,17.23
2018-06-22T15:09:07.559Z,15.27
2018-06-22T15:11:35.634Z,22.37
2018-06-22T15:14:04.007Z,140.07
2018-06-22T15:16:32.341Z,17.83
2018-06-22T15:19:00.485Z,45.40
2018-06-22T15:21:28.680Z,54.00
2018-06-22T15:23:56.736Z,105.77
2018-06-22T15:26:24.943Z,90.63
2018-06-22T15:28:53.056Z,139.43
2018-06-22T15:31:21.180Z,81.53
2018-06-22T15:33:54.982Z,81.23
2018-06-22T15:36:28.540Z,66.80
2018-06-22T15:39:02.270Z,54.83
2018-06-22T15:41:35.940Z,44.30
2018-06-22T15:44:09.480Z,61.47
2018-06-22T15:46:43.130Z,54.80
2018-06-22T15:49:16.801Z,138.07
2018-06-22T15:51:50.504Z,67.57
2018-06-22T15:54:24.046Z,67.37
2018-06-22T15:56:52.298Z,73.93
2018-06-22T15:59:21.320Z,95.53
2018-06-22T16:01:49.589Z,73.30
2018-06-22T16:04:17.661Z,53.60
2018-06-22T16:06:45.840Z,64.83
2018-06-22T16:09:13.941Z,133.90
2018-06-22T16:11:42.028Z,83.20
2018-06-22T16:14:15.755Z,68.40
2018-06-22T16:16:49.235Z,71.03
2018-06-22T16:19:23.070Z,62.00
2018-06-22T16:21:56.639Z,52.43
2018-06-22T16:24:30.113Z,45.53
2018-06-22T16:27:03.806Z,55.20
2018-06-22T16:29:32.077Z,59.63
2018-06-22T16:32:00.253Z,48.57
2018-06-22T16:34:28.376Z,47.67
2018-06-22T16:36:56.578Z,45.00
2018-06-22T16:39:24.661Z,57.33
2018-06-22T16:41:52.744Z,39.23
2018-06-22T16:44:20.841Z,36.57
2018-06-22T16:46:48.940Z,35.37
2018-06-22T16:49:17.091Z,41.97
2018-06-22T16:51:45.179Z,45.27
2018-06-22T16:54:13.222Z,29.33
2018-06-22T16:56:41.464Z,34.40
2018-06-22T16:59:09.619Z,32.23
2018-06-22T17:01:37.558Z,35.33
2018-06-22T17:04:05.909Z,31.67
2018-06-22T17:06:39.578Z,23.13
2018-06-22T17:09:13.900Z,28.37
2018-06-22T17:11:47.596Z,26.07
2018-06-22T17:15:22.167Z,27.57
2018-06-22T17:17:55.855Z,24.13
2018-06-22T17:20:23.949Z,16.13
2018-06-22T17:22:52.034Z,17.23
2018-06-22T17:25:20.225Z,21.63
2018-06-22T17:27:48.315Z,16.50
2018-06-22T17:30:16.428Z,19.13
2018-06-22T17:32:44.501Z,20.80
2018-06-22T17:35:12.589Z,13.77
2018-06-22T17:37:40.681Z,12.87
2018-06-22T17:40:08.808Z,14.50
2018-06-22T17:42:36.876Z,12.33
2018-06-22T17:45:05.207Z,15.73
2018-06-22T17:47:33.316Z,13.27
2018-06-22T17:50:05.698Z,13.23
2018-06-22T17:52:33.774Z,15.83
2018-06-22T17:55:01.857Z,10.13
2018-06-22T17:57:29.971Z,10.23
2018-06-22T18:00:03.556Z,7.97
2018-06-22T18:02:37.277Z,10.77
2018-06-22T18:05:10.792Z,10.70
2018-06-22T18:07:42.839Z,7.77
2018-06-22T18:10:16.272Z,10.37
2018-06-22T18:12:50.472Z,12.27
2018-06-22T18:15:19.320Z,11.80
2018-06-22T18:17:47.705Z,11.17
2018-06-22T18:20:16.261Z,10.23
2018-06-22T18:22:44.299Z,7.77
2018-06-22T18:25:13.108Z,7.30
2018-06-22T18:27:41.169Z,7.07
2018-06-22T18:30:11.221Z,7.40
2018-06-22T18:32:39.313Z,7.10
2018-06-22T18:35:09.149Z,7.37
2018-06-22T18:37:37.285Z,7.30
2018-06-22T18:40:05.935Z,8.10
2018-06-22T18:42:34.365Z,8.33
2018-06-22T18:45:02.645Z,7.73
2018-06-22T18:47:30.748Z,6.03
2018-06-22T18:49:58.823Z,6.10
2018-06-22T18:52:32.284Z,5.80
2018-06-22T18:55:05.900Z,6.50
2018-06-22T18:57:39.419Z,5.70
2018-06-22T19:00:12.965Z,7.13
2018-06-22T19:02:46.704Z,7.67
2018-06-22T19:05:14.857Z,6.77
2018-06-22T19:07:42.916Z,6.80
2018-06-22T19:10:11.035Z,4.70
2018-06-22T19:12:39.084Z,6.37
2018-06-22T19:15:07.239Z,4.97
2018-06-22T19:17:35.446Z,8.43
2018-06-22T19:20:03.552Z,5.47
2018-06-22T19:22:31.670Z,6.60
2018-06-22T19:24:59.768Z,5.60
2018-06-22T19:27:27.836Z,4.70
2018-06-22T19:29:55.893Z,6.57
2018-06-22T19:32:24.034Z,4.87
2018-06-22T19:34:57.719Z,6.13
2018-06-22T19:37:25.797Z,5.57
2018-06-22T19:39:53.872Z,5.63
2018-06-22T19:42:22.657Z,3.93
2018-06-22T19:44:56.180Z,4.03
2018-06-22T19:47:29.814Z,4.97
2018-06-22T19:50:03.351Z,4.47
2018-06-22T19:52:37.074Z,5.73
2018-06-22T19:55:05.265Z,3.23
2018-06-22T19:57:33.339Z,4.57
2018-06-22T20:00:01.478Z,4.90
2018-06-22T20:02:29.672Z,3.60
2018-06-22T20:04:57.822Z,4.43
2018-06-22T20:07:25.884Z,5.97
2018-06-22T20:09:54.003Z,5.20
2018-06-22T20:12:22.118Z,5.33
2018-06-22T20:14:50.243Z,4.07
2018-06-22T20:17:18.325Z,4.33
2018-06-22T20:19:46.424Z,5.03
2018-06-22T20:22:14.489Z,5.43
2018-06-22T20:24:47.986Z,5.23
2018-06-22T20:27:16.063Z,4.47
2018-06-22T20:29:44.148Z,6.20
2018-06-22T20:32:15.030Z,4.97
2018-06-22T20:34:49.226Z,4.80
2018-06-22T20:37:22.912Z,4.80
2018-06-22T20:39:56.417Z,5.33
2018-06-22T20:42:30.070Z,4.90
2018-06-22T20:45:03.584Z,4.73
2018-06-22T20:47:37.061Z,4.63
2018-06-22T20:50:10.720Z,8.10
2018-06-22T20:52:38.778Z,5.50
2018-06-22T20:55:06.857Z,4.63
2018-06-22T20:57:34.965Z,5.10
2018-06-22T21:00:03.102Z,6.70
2018-06-22T21:02:31.156Z,5.57
2018-06-22T21:04:59.292Z,7.00
2018-06-22T21:07:27.365Z,5.23
2018-06-22T21:09:55.425Z,5.73
2018-06-22T21:12:26.255Z,7.63
2018-06-22T21:14:51.585Z,5.70
2018-06-22T21:17:19.667Z,6.33
2018-06-22T21:19:47.855Z,6.27
2018-06-22T21:22:15.944Z,5.47
2018-06-22T21:24:44.023Z,6.40
2018-06-22T21:27:17.456Z,5.67
2018-06-22T21:29:50.980Z,6.23
2018-06-22T21:32:24.642Z,7.30
2018-06-22T21:34:58.198Z,6.57
2018-06-22T21:37:31.768Z,5.73
2018-06-22T21:39:59.971Z,5.83
2018-06-22T21:42:27.992Z,8.57
2018-06-22T21:44:56.049Z,7.03
2018-06-22T21:47:24.232Z,8.73
2018-06-22T21:49:52.345Z,8.17
2018-06-22T21:52:20.404Z,7.43
2018-06-22T21:54:48.484Z,8.73
2018-06-22T21:57:16.578Z,9.63
2018-06-22T21:59:44.672Z,7.53
2018-06-22T22:02:12.727Z,8.67
2018-06-22T22:04:40.836Z,7.30
2018-06-22T22:07:08.889Z,10.20
2018-06-22T22:09:43.038Z,8.83
2018-06-22T22:12:11.499Z,9.40
2018-06-22T22:14:40.228Z,6.00
2018-06-22T22:17:08.517Z,9.43
2018-06-22T22:19:37.271Z,8.57
2018-06-22T22:22:05.480Z,9.03
2018-06-22T22:24:33.713Z,9.50
2018-06-22T22:27:01.800Z,10.33
2018-06-22T22:29:30.511Z,8.80
2018-06-22T22:31:58.564Z,6.67
2018-06-22T22:34:26.640Z,9.53
2018-06-22T22:36:54.698Z,6.47
2018-06-22T22:39:22.751Z,8.23
2018-06-22T22:41:50.816Z,9.90
2018-06-22T22:44:18.879Z,7.80
2018-06-22T22:46:46.947Z,7.67
2018-06-22T22:49:15.005Z,8.60
2018-06-22T22:51:43.073Z,8.97
2018-06-22T22:54:10.919Z,10.63
2018-06-22T22:56:38.984Z,7.20
2018-06-22T22:59:07.056Z,8.90
2018-06-22T23:01:35.156Z,10.53
2018-06-22T23:04:03.252Z,9.77
2018-06-22T23:06:31.536Z,11.50
2018-06-22T23:08:59.616Z,8.87
2018-06-22T23:11:27.700Z,9.27
2018-06-22T23:13:55.752Z,10.73
2018-06-22T23:16:23.851Z,8.43
2018-06-22T23:18:52.033Z,10.93
2018-06-22T23:21:20.101Z,9.97
2018-06-22T23:23:48.242Z,9.37
2018-06-22T23:26:16.296Z,11.00
2018-06-22T23:28:44.363Z,9.50
2018-06-22T23:31:12.431Z,10.27
2018-06-22T23:33:40.365Z,10.57
2018-06-22T23:36:08.477Z,10.07
2018-06-22T23:38:36.667Z,10.03
2018-06-22T23:41:04.757Z,11.20
2018-06-22T23:43:32.911Z,9.70
2018-06-22T23:46:01.162Z,13.07
2018-06-22T23:48:29.253Z,9.73
2018-06-22T23:50:57.328Z,11.33
2018-06-22T23:53:25.496Z,7.97
2018-06-22T23:55:53.556Z,9.63
2018-06-22T23:58:21.623Z,9.77
